createdAt,value
2023-02-05T00:03:51.869Z,71.89
2023-02-05T00:08:54.794Z,71.78
2023-02-05T00:13:57.777Z,72.06
2023-02-05T00:19:02.183Z,72.95
2023-02-05T00:24:05.417Z,73.70
2023-02-05T00:29:08.375Z,73.68
2023-02-05T00:34:12.609Z,74.38
2023-02-05T00:39:16.063Z,74.37
2023-02-05T00:44:19.011Z,74.97
2023-02-05T00:49:23.352Z,74.78
2023-02-05T00:54:26.389Z,75.33
2023-02-05T00:59:29.286Z,75.69
2023-02-05T01:04:33.568Z,76.76
2023-02-05T01:09:36.477Z,76.28
2023-02-05T01:14:39.490Z,77.09
2023-02-05T01:19:43.928Z,76.55
2023-02-05T01:24:46.959Z,77.42
2023-02-05T01:29:49.875Z,78.49
2023-02-05T01:34:54.170Z,78.19
2023-02-05T01:39:57.133Z,78.61
2023-02-05T01:45:37.162Z,78.08
2023-02-05T01:50:45.568Z,78.46
2023-02-05T01:55:54.138Z,78.52
2023-02-05T02:00:58.782Z,78.36
2023-02-05T02:06:04.784Z,78.60
2023-02-05T02:11:11.132Z,78.56
2023-02-05T02:16:14.941Z,78.70
2023-02-05T02:21:43.756Z,79.30
2023-02-05T02:27:01.116Z,79.91
2023-02-05T02:32:15.581Z,79.24
2023-02-05T02:37:26.177Z,78.45
2023-02-05T02:42:34.596Z,79.29
2023-02-05T02:47:45.537Z,79.19
2023-02-05T02:52:49.602Z,80.00
2023-02-05T02:57:54.813Z,78.92
2023-02-05T03:03:06.268Z,78.92
2023-02-05T03:08:14.602Z,79.34
2023-02-05T03:13:19.580Z,79.63
2023-02-05T03:18:31.341Z,81.04
2023-02-05T03:23:34.331Z,80.09
2023-02-05T03:28:37.357Z,80.20
2023-02-05T03:33:54.296Z,80.89
2023-02-05T03:39:10.722Z,80.69
2023-02-05T03:44:25.255Z,81.38
2023-02-05T03:49:38.446Z,80.57
2023-02-05T03:54:47.640Z,80.95
2023-02-05T03:59:58.082Z,80.55
2023-02-05T04:05:03.979Z,81.02
2023-02-05T04:10:07.833Z,81.15
2023-02-05T04:15:12.325Z,80.67
2023-02-05T04:20:22.097Z,80.55
2023-02-05T04:25:25.139Z,81.32
2023-02-05T04:30:30.294Z,82.21
2023-02-05T04:35:35.043Z,81.17
2023-02-05T04:40:41.008Z,82.25
2023-02-05T04:45:43.947Z,82.71
2023-02-05T04:50:48.740Z,82.42
2023-02-05T04:55:51.724Z,82.02
2023-02-05T05:00:54.670Z,82.18
2023-02-05T05:06:04.606Z,81.97
2023-02-05T05:11:08.805Z,81.95
2023-02-05T05:16:12.597Z,82.00
2023-02-05T05:21:16.949Z,81.70
2023-02-05T05:26:19.828Z,84.74
2023-02-05T05:31:22.824Z,83.49
2023-02-05T05:36:27.145Z,82.92
2023-02-05T05:41:47.528Z,82.99
2023-02-05T05:46:50.529Z,83.51
2023-02-05T05:51:54.732Z,83.29
2023-02-05T05:56:57.645Z,84.27
2023-02-05T06:02:02.477Z,83.10
2023-02-05T06:07:06.840Z,82.21
2023-02-05T06:12:11.673Z,81.90
2023-02-05T06:17:14.749Z,82.94
2023-02-05T06:22:19.023Z,85.12
2023-02-05T06:27:21.922Z,83.92
2023-02-05T06:32:26.804Z,83.47
2023-02-05T06:37:46.323Z,83.16
2023-02-05T06:42:50.231Z,82.61
2023-02-05T06:47:55.925Z,82.49
2023-02-05T06:53:00.285Z,81.83
2023-02-05T06:58:03.138Z,82.49
2023-02-05T07:03:06.108Z,82.04
2023-02-05T07:08:10.392Z,79.54
2023-02-05T07:13:13.307Z,77.63
2023-02-05T07:18:16.377Z,78.48
2023-02-05T07:23:20.619Z,76.40
2023-02-05T07:28:23.544Z,79.04
2023-02-05T07:33:26.441Z,78.51
2023-02-05T07:38:30.723Z,78.70
2023-02-05T07:43:33.663Z,78.60
2023-02-05T07:48:37.140Z,77.42
2023-02-05T07:53:41.392Z,77.60
2023-02-05T07:58:44.728Z,75.95
2023-02-05T08:03:47.622Z,77.51
2023-02-05T08:08:51.886Z,79.19
2023-02-05T08:13:54.811Z,79.54
2023-02-05T08:18:57.664Z,78.44
2023-02-05T08:24:02.188Z,77.18
2023-02-05T08:29:05.216Z,77.54
2023-02-05T08:34:08.177Z,77.43
2023-02-05T08:39:12.470Z,76.51
2023-02-05T08:44:15.464Z,77.45
2023-02-05T08:49:18.573Z,76.16
2023-02-05T08:54:22.974Z,75.83
2023-02-05T08:59:25.939Z,74.56
2023-02-05T09:04:29.306Z,74.23
2023-02-05T09:09:34.972Z,74.34
2023-02-05T09:14:38.122Z,76.14
2023-02-05T09:19:42.548Z,75.66
2023-02-05T09:24:46.904Z,74.15
2023-02-05T09:29:49.782Z,75.07
2023-02-05T09:34:52.694Z,73.51
2023-02-05T09:45:37.313Z,72.25
2023-02-05T09:50:42.541Z,72.75
2023-02-05T09:55:48.270Z,68.73
2023-02-05T10:00:54.810Z,69.64
2023-02-05T10:06:14.085Z,71.14
2023-02-05T10:11:27.905Z,71.28
2023-02-05T10:17:09.149Z,70.88
2023-02-05T10:22:19.515Z,70.39
2023-02-05T10:27:25.804Z,70.23
2023-02-05T10:32:40.055Z,69.39
2023-02-05T10:37:47.926Z,67.79
2023-02-05T10:42:56.028Z,67.06
2023-02-05T10:48:23.349Z,67.17
2023-02-05T10:53:27.908Z,67.93
2023-02-05T10:58:47.733Z,64.98
2023-02-05T11:03:55.934Z,64.64
2023-02-05T11:08:59.084Z,64.22
2023-02-05T11:14:07.166Z,66.27
2023-02-05T11:19:21.423Z,64.73
2023-02-05T11:24:29.004Z,63.76
2023-02-05T11:29:33.264Z,65.05
2023-02-05T11:34:36.215Z,64.12
2023-02-05T11:39:41.399Z,62.52
2023-02-05T11:44:51.149Z,64.50
2023-02-05T11:49:55.135Z,63.94
2023-02-05T11:54:58.148Z,63.95
2023-02-05T12:00:19.339Z,60.93
2023-02-05T12:05:27.223Z,60.32
2023-02-05T12:10:38.820Z,61.09
2023-02-05T12:15:48.869Z,59.97
2023-02-05T12:21:05.976Z,60.50
2023-02-05T12:26:27.422Z,57.59
2023-02-05T12:31:47.069Z,57.42
2023-02-05T12:37:05.299Z,58.03
2023-02-05T12:42:22.749Z,57.65
2023-02-05T12:47:45.347Z,57.38
2023-02-05T12:53:13.635Z,56.76
2023-02-05T12:58:18.542Z,55.26
2023-02-05T13:03:29.647Z,53.47
2023-02-05T13:08:42.772Z,50.33
2023-02-05T13:13:53.109Z,48.65
2023-02-05T13:19:03.209Z,49.72
2023-02-05T13:24:40.786Z,49.92
2023-02-05T13:29:51.385Z,51.86
2023-02-05T13:34:58.633Z,50.44
2023-02-05T13:40:40.157Z,51.40
2023-02-05T13:46:20.806Z,49.57
2023-02-05T13:51:40.118Z,49.39
2023-02-05T13:56:49.533Z,48.45
2023-02-05T14:01:57.901Z,49.30
2023-02-05T14:07:05.345Z,50.60
2023-02-05T14:12:11.305Z,49.36
2023-02-05T14:17:47.199Z,49.91
2023-02-05T14:22:52.620Z,50.75
2023-02-05T14:27:56.875Z,50.07
2023-02-05T14:33:01.112Z,50.90
2023-02-05T14:38:17.341Z,49.58
2023-02-05T14:43:28.435Z,49.72
2023-02-05T14:48:34.314Z,50.10
2023-02-05T14:53:39.879Z,50.68
2023-02-05T14:58:45.209Z,51.95
2023-02-05T15:03:48.322Z,50.98
2023-02-05T15:09:00.618Z,51.36
2023-02-05T15:14:44.381Z,53.42
2023-02-05T15:19:52.705Z,52.03
2023-02-05T15:24:58.158Z,53.72
2023-02-05T15:30:09.163Z,52.70
2023-02-05T15:35:17.444Z,53.32
2023-02-05T15:40:25.964Z,54.50
2023-02-05T15:45:31.914Z,54.72
2023-02-05T15:50:37.122Z,54.97
2023-02-05T15:55:41.426Z,56.08
2023-02-05T16:00:47.823Z,56.25
2023-02-05T16:05:53.142Z,56.45
2023-02-05T16:11:01.915Z,55.67
2023-02-05T16:16:09.576Z,56.86
2023-02-05T16:21:18.695Z,57.03
2023-02-05T16:26:27.825Z,56.03
2023-02-05T16:31:33.574Z,56.52
2023-02-05T16:36:40.052Z,56.34
2023-02-05T16:41:45.183Z,56.94
2023-02-05T16:47:06.682Z,59.91
2023-02-05T16:52:31.864Z,60.35
2023-02-05T16:57:39.846Z,62.70
2023-02-05T17:02:43.209Z,65.14
2023-02-05T17:07:55.461Z,65.11
2023-02-05T17:13:04.862Z,66.76
2023-02-05T17:18:26.565Z,65.06
2023-02-05T17:23:29.449Z,65.99
2023-02-05T17:28:38.096Z,67.47
2023-02-05T17:33:41.057Z,67.25
2023-02-05T17:38:44.059Z,67.44
2023-02-05T17:43:48.412Z,68.33
2023-02-05T17:48:51.346Z,68.22
2023-02-05T17:53:54.629Z,67.69
2023-02-05T17:58:59.896Z,67.69
2023-02-05T18:04:02.915Z,68.21
2023-02-05T18:09:06.267Z,68.44
2023-02-05T18:14:12.590Z,67.55
2023-02-05T18:19:15.801Z,67.33
2023-02-05T18:24:18.725Z,68.27
2023-02-05T18:29:23.198Z,68.44
2023-02-05T18:34:27.706Z,68.48
2023-02-05T18:39:30.629Z,68.68
2023-02-05T18:44:35.177Z,68.47
2023-02-05T18:49:38.153Z,68.93
2023-02-05T18:54:41.355Z,69.10
2023-02-05T18:59:48.461Z,69.61
2023-02-05T19:04:55.733Z,70.76
2023-02-05T19:09:59.356Z,73.80
2023-02-05T19:15:03.684Z,72.68
2023-02-05T19:20:07.353Z,72.57
2023-02-05T19:25:10.248Z,72.37
2023-02-05T19:30:15.093Z,72.32
2023-02-05T19:35:18.276Z,73.04
2023-02-05T19:40:21.605Z,73.89
2023-02-05T19:45:25.848Z,73.23
2023-02-05T19:50:28.757Z,73.17
2023-02-05T19:55:33.049Z,73.25
2023-02-05T20:00:37.530Z,72.83
2023-02-05T20:05:40.485Z,72.58
2023-02-05T20:10:43.393Z,73.10
2023-02-05T20:15:47.794Z,73.14
2023-02-05T20:20:50.726Z,73.26
2023-02-05T20:25:57.537Z,72.98
2023-02-05T20:31:19.737Z,73.75
2023-02-05T20:36:22.807Z,73.99
2023-02-05T20:41:26.178Z,74.12
2023-02-05T20:46:31.130Z,74.21
2023-02-05T20:51:34.077Z,74.05
2023-02-05T20:56:37.308Z,73.97
2023-02-05T21:01:41.633Z,73.85
2023-02-05T21:06:44.588Z,74.76
2023-02-05T21:11:47.727Z,74.73
2023-02-05T21:16:52.098Z,74.17
2023-02-05T21:21:54.995Z,75.09
2023-02-05T21:26:57.987Z,75.10
2023-02-05T21:32:02.393Z,76.09
2023-02-05T21:37:05.306Z,76.40
2023-02-05T21:42:08.224Z,77.58
2023-02-05T21:47:12.506Z,76.12
2023-02-05T21:52:15.572Z,76.78
2023-02-05T21:57:18.607Z,77.28
2023-02-05T22:02:22.993Z,75.85
2023-02-05T22:07:26.073Z,76.05
2023-02-05T22:12:28.989Z,76.08
2023-02-05T22:17:33.272Z,76.04
2023-02-05T22:22:36.457Z,77.59
2023-02-05T22:27:39.384Z,76.72
2023-02-05T22:32:43.694Z,76.13
2023-02-05T22:37:46.576Z,75.89
2023-02-05T22:42:49.487Z,76.00
2023-02-05T22:47:53.759Z,76.47
2023-02-05T22:52:56.699Z,76.81
2023-02-05T22:57:59.618Z,77.10
2023-02-05T23:03:03.959Z,77.02
2023-02-05T23:08:06.976Z,77.03
2023-02-05T23:13:09.990Z,77.15
2023-02-05T23:18:14.305Z,77.68
2023-02-05T23:23:17.202Z,77.90
2023-02-05T23:28:21.858Z,77.45
2023-02-05T23:33:26.173Z,77.54
2023-02-05T23:38:29.133Z,77.04
2023-02-05T23:43:33.219Z,77.36
2023-02-05T23:48:37.504Z,78.21
2023-02-05T23:53:40.454Z,79.55
2023-02-05T23:58:43.339Z,78.73
